createdAt,value
2019-04-21T00:01:03.948Z,6.07
2019-04-21T00:03:40.045Z,6.03
2019-04-21T00:06:27.051Z,6.13
2019-04-21T00:08:57.921Z,9.10
2019-04-21T00:11:24.972Z,9.03
2019-04-21T00:13:49.708Z,5.90
2019-04-21T00:16:10.673Z,6.80
2019-04-21T00:18:50.581Z,7.17
2019-04-21T00:21:28.306Z,8.60
2019-04-21T00:24:21.531Z,7.40
2019-04-21T00:26:57.422Z,7.50
2019-04-21T00:29:30.376Z,10.93
2019-04-21T00:31:56.632Z,10.87
2019-04-21T00:34:11.188Z,6.50
2019-04-21T00:36:50.263Z,7.53
2019-04-21T00:39:43.347Z,6.03
2019-04-21T00:42:00.940Z,8.20
2019-04-21T00:44:24.479Z,8.33
2019-04-21T00:47:00.590Z,8.67
2019-04-21T00:49:33.043Z,6.27
2019-04-21T00:52:35.383Z,7.60
2019-04-21T00:55:03.937Z,8.47
2019-04-21T00:57:25.254Z,6.80
2019-04-21T00:59:55.675Z,6.17
2019-04-21T01:02:29.749Z,6.10
2019-04-21T01:05:06.359Z,11.07
2019-04-21T01:07:32.034Z,8.37
2019-04-21T01:09:54.091Z,6.97
2019-04-21T01:12:33.409Z,9.50
2019-04-21T01:15:04.754Z,8.13
2019-04-21T01:17:35.608Z,7.37
2019-04-21T01:19:57.492Z,12.23
2019-04-21T01:22:13.871Z,7.40
2019-04-21T01:24:46.609Z,7.60
2019-04-21T01:27:26.309Z,6.50
2019-04-21T01:30:08.552Z,10.53
2019-04-21T01:32:40.585Z,8.37
2019-04-21T01:35:10.157Z,11.90
2019-04-21T01:37:44.287Z,7.93
2019-04-21T01:40:16.251Z,6.90
2019-04-21T01:42:43.026Z,8.00
2019-04-21T01:45:09.336Z,7.40
2019-04-21T01:47:44.902Z,9.03
2019-04-21T01:50:02.642Z,7.57
2019-04-21T01:52:54.621Z,8.07
2019-04-21T01:55:44.798Z,9.27
2019-04-21T01:58:11.746Z,7.40
2019-04-21T02:00:55.486Z,9.17
2019-04-21T02:03:48.700Z,11.57
2019-04-21T02:06:06.376Z,8.03
2019-04-21T02:08:27.514Z,8.67
2019-04-21T02:11:08.041Z,10.57
2019-04-21T02:13:28.260Z,8.83
2019-04-21T02:16:07.932Z,10.67
2019-04-21T02:18:37.394Z,7.70
2019-04-21T02:20:52.869Z,12.20
2019-04-21T02:26:09.721Z,11.33
2019-04-21T02:28:55.578Z,9.70
2019-04-21T02:31:20.518Z,9.37
2019-04-21T02:33:54.298Z,13.57
2019-04-21T02:38:56.318Z,10.93
2019-04-21T02:41:28.371Z,10.37
2019-04-21T02:44:00.670Z,15.80
2019-04-21T02:46:35.229Z,11.93
2019-04-21T02:49:11.286Z,9.37
2019-04-21T02:59:17.302Z,11.37
2019-04-21T03:01:56.721Z,9.47
2019-04-21T03:05:17.757Z,9.53
2019-04-21T03:07:46.431Z,11.67
2019-04-21T03:10:11.540Z,10.13
2019-04-21T03:12:37.681Z,9.90
2019-04-21T03:15:29.424Z,9.97
2019-04-21T03:17:54.957Z,8.60
2019-04-21T03:20:19.145Z,8.67
2019-04-21T03:22:42.688Z,11.47
2019-04-21T03:30:29.250Z,9.03
2019-04-21T03:33:29.723Z,9.67
2019-04-21T03:37:52.924Z,9.50
2019-04-21T03:40:18.768Z,11.20
2019-04-21T03:47:55.172Z,10.90
2019-04-21T03:50:30.098Z,8.60
2019-04-21T03:53:03.518Z,11.40
2019-04-21T03:58:19.512Z,9.70
2019-04-21T04:01:00.439Z,13.73
2019-04-21T04:06:49.269Z,11.67
2019-04-21T04:09:21.379Z,13.07
2019-04-21T04:11:53.235Z,9.90
2019-04-21T04:16:57.091Z,8.90
2019-04-21T04:19:18.676Z,14.60
2019-04-21T04:22:01.275Z,8.80
2019-04-21T04:24:33.990Z,10.93
2019-04-21T04:31:53.454Z,9.23
2019-04-21T04:34:27.537Z,9.67
2019-04-21T04:40:07.307Z,10.53
2019-04-21T04:42:43.306Z,8.93
2019-04-21T04:45:15.738Z,8.20
2019-04-21T04:47:34.874Z,9.27
2019-04-21T04:50:22.639Z,8.87
2019-04-21T04:57:46.614Z,8.93
2019-04-21T05:05:17.325Z,9.43
2019-04-21T05:10:04.304Z,8.97
2019-04-21T05:15:11.494Z,10.00
2019-04-21T05:17:46.455Z,14.70
2019-04-21T05:22:42.676Z,9.40
2019-04-21T05:25:03.472Z,8.83
2019-04-21T05:27:43.293Z,8.70
2019-04-21T05:30:29.085Z,7.27
2019-04-21T05:33:09.240Z,8.93
2019-04-21T05:36:11.501Z,8.27
2019-04-21T05:38:57.053Z,7.90
2019-04-21T05:41:20.647Z,11.73
2019-04-21T05:43:56.357Z,9.57
2019-04-21T05:46:32.394Z,9.70
2019-04-21T05:49:05.814Z,9.60
2019-04-21T05:51:31.774Z,12.60
2019-04-21T05:54:19.298Z,8.83
2019-04-21T05:56:45.687Z,10.43
2019-04-21T05:59:10.296Z,9.37
2019-04-21T06:01:47.061Z,10.03
2019-04-21T06:04:17.491Z,9.27
2019-04-21T06:06:55.444Z,9.33
2019-04-21T06:09:16.142Z,8.80
2019-04-21T06:11:49.737Z,9.80
2019-04-21T06:14:21.717Z,9.23
2019-04-21T06:16:56.573Z,13.30
2019-04-21T06:19:22.326Z,8.23
2019-04-21T06:21:51.248Z,11.23
2019-04-21T06:24:27.994Z,8.37
2019-04-21T06:27:10.935Z,12.17
2019-04-21T06:29:25.461Z,8.97
2019-04-21T06:34:24.602Z,12.27
2019-04-21T06:37:07.855Z,9.83
2019-04-21T06:39:40.515Z,9.50
2019-04-21T06:42:02.828Z,8.53
2019-04-21T06:44:38.883Z,9.53
2019-04-21T06:47:17.922Z,10.40
2019-04-21T06:49:41.255Z,8.17
2019-04-21T06:52:18.042Z,10.23
2019-04-21T06:54:48.216Z,9.07
2019-04-21T06:57:16.822Z,7.27
2019-04-21T06:59:38.434Z,9.13
2019-04-21T07:02:30.659Z,8.90
2019-04-21T07:04:50.071Z,9.87
2019-04-21T07:07:18.913Z,9.93
2019-04-21T07:09:51.019Z,10.10
2019-04-21T07:12:12.305Z,6.87
2019-04-21T07:14:49.834Z,7.43
2019-04-21T07:17:24.616Z,8.27
2019-04-21T07:19:55.571Z,7.37
2019-04-21T07:22:24.488Z,7.83
2019-04-21T07:24:54.059Z,6.17
2019-04-21T07:27:24.118Z,6.07
2019-04-21T07:29:59.536Z,9.77
2019-04-21T07:32:26.453Z,7.03
2019-04-21T07:35:00.219Z,6.27
2019-04-21T07:37:33.207Z,5.20
2019-04-21T07:39:56.017Z,5.63
2019-04-21T07:42:24.076Z,5.07
2019-04-21T07:44:53.459Z,6.10
2019-04-21T07:47:44.045Z,7.77
2019-04-21T07:50:24.436Z,5.57
2019-04-21T07:53:03.228Z,4.80
2019-04-21T07:57:56.187Z,5.90
2019-04-21T08:00:36.884Z,7.57
2019-04-21T08:03:21.938Z,5.73
2019-04-21T08:05:38.962Z,5.47
2019-04-21T08:07:59.598Z,5.43
2019-04-21T08:10:34.976Z,7.28
2019-04-21T08:13:09.808Z,5.47
2019-04-21T08:15:40.281Z,6.50
2019-04-21T08:18:11.799Z,5.50
2019-04-21T08:20:45.205Z,6.62
2019-04-21T08:23:13.167Z,8.83
2019-04-21T08:25:53.648Z,6.47
2019-04-21T08:28:08.957Z,4.70
2019-04-21T08:30:44.368Z,6.33
2019-04-21T08:33:25.039Z,6.78
2019-04-21T08:38:21.901Z,5.60
2019-04-21T08:40:49.258Z,4.28
2019-04-21T08:43:29.054Z,5.25
2019-04-21T08:45:52.744Z,4.65
2019-04-21T08:48:22.573Z,5.87
2019-04-21T08:51:05.586Z,7.25
2019-04-21T08:53:39.927Z,4.33
2019-04-21T08:56:18.207Z,5.53
2019-04-21T08:59:09.532Z,5.58
2019-04-21T09:01:49.609Z,6.33
2019-04-21T09:04:18.527Z,4.30
2019-04-21T09:06:58.919Z,4.65
2019-04-21T09:09:25.903Z,5.42
2019-04-21T09:11:56.132Z,5.50
2019-04-21T09:14:24.467Z,7.33
2019-04-21T09:16:52.860Z,5.35
2019-04-21T09:19:41.979Z,4.00
2019-04-21T09:21:55.195Z,4.30
2019-04-21T09:24:26.785Z,5.53
2019-04-21T09:27:00.106Z,4.47
2019-04-21T09:29:22.143Z,4.40
2019-04-21T09:31:44.443Z,5.40
2019-04-21T09:34:20.772Z,7.53
2019-04-21T09:36:49.519Z,6.55
2019-04-21T09:39:18.836Z,7.35
2019-04-21T09:41:49.905Z,6.35
2019-04-21T09:44:24.943Z,6.80
2019-04-21T09:46:52.431Z,4.37
2019-04-21T09:49:24.159Z,3.75
2019-04-21T09:51:50.544Z,4.42
2019-04-21T09:54:24.801Z,3.95
2019-04-21T09:56:58.546Z,4.83
2019-04-21T09:59:28.146Z,4.87
2019-04-21T10:02:05.694Z,7.25
2019-04-21T10:04:24.188Z,4.70
2019-04-21T10:06:54.418Z,4.53
2019-04-21T10:09:24.266Z,4.35
2019-04-21T10:11:54.836Z,8.08
2019-04-21T10:14:24.406Z,5.83
2019-04-21T10:17:13.060Z,5.40
2019-04-21T10:19:43.844Z,3.72
2019-04-21T10:22:16.916Z,3.75
2019-04-21T10:24:46.731Z,4.50
2019-04-21T10:27:17.124Z,3.77
2019-04-21T10:29:47.220Z,5.72
2019-04-21T10:32:20.145Z,3.58
2019-04-21T10:34:49.433Z,3.55
2019-04-21T10:37:18.927Z,3.90
2019-04-21T10:39:49.532Z,3.20
2019-04-21T10:42:19.495Z,4.78
2019-04-21T10:44:49.407Z,3.45
2019-04-21T10:47:18.777Z,3.92
2019-04-21T10:49:48.659Z,4.22
2019-04-21T10:52:27.902Z,8.98
2019-04-21T10:55:21.874Z,3.90
2019-04-21T10:57:30.520Z,3.60
2019-04-21T11:00:01.382Z,5.53
2019-04-21T11:02:41.002Z,5.62
2019-04-21T11:05:10.855Z,5.53
2019-04-21T11:08:05.151Z,3.65
2019-04-21T11:10:22.622Z,4.53
2019-04-21T11:12:52.646Z,3.60
2019-04-21T11:15:23.357Z,5.67
2019-04-21T11:17:52.616Z,4.42
2019-04-21T11:20:22.804Z,7.00
2019-04-21T11:22:53.662Z,5.10
2019-04-21T11:25:24.305Z,3.85
2019-04-21T11:27:53.563Z,3.60
2019-04-21T11:30:23.381Z,3.30
2019-04-21T11:32:53.154Z,8.10
2019-04-21T11:35:23.372Z,5.15
2019-04-21T11:37:59.404Z,3.60
2019-04-21T11:40:25.443Z,3.70
2019-04-21T11:42:55.883Z,5.75
2019-04-21T11:45:34.698Z,3.42
2019-04-21T11:48:24.122Z,4.87
2019-04-21T11:50:53.569Z,5.15
2019-04-21T11:53:23.291Z,7.03
2019-04-21T11:55:53.889Z,3.52
2019-04-21T11:58:23.727Z,4.83
2019-04-21T12:01:00.498Z,4.35
2019-04-21T12:03:29.668Z,3.75
2019-04-21T12:05:59.540Z,6.83
2019-04-21T12:08:36.476Z,4.35
2019-04-21T12:10:59.860Z,6.40
2019-04-21T12:13:30.012Z,4.58
2019-04-21T12:16:00.959Z,3.95
2019-04-21T12:18:32.048Z,4.03
2019-04-21T12:21:01.385Z,3.58
2019-04-21T12:23:30.598Z,5.05
2019-04-21T12:26:01.116Z,3.42
2019-04-21T12:28:30.581Z,4.62
2019-04-21T12:31:00.231Z,5.33
2019-04-21T12:34:03.821Z,4.37
2019-04-21T12:36:33.803Z,3.52
2019-04-21T12:39:05.196Z,3.60
2019-04-21T12:41:34.167Z,6.15
2019-04-21T12:44:04.610Z,3.27
2019-04-21T12:46:34.193Z,4.12
2019-04-21T12:49:04.129Z,4.60
2019-04-21T12:51:33.822Z,3.95
2019-04-21T12:54:03.771Z,3.98
2019-04-21T12:56:33.672Z,3.98
2019-04-21T12:59:02.900Z,3.30
2019-04-21T13:01:32.759Z,3.40
2019-04-21T13:04:02.165Z,4.35
2019-04-21T13:06:31.775Z,2.98
2019-04-21T13:09:05.289Z,4.37
2019-04-21T13:11:33.158Z,5.00
2019-04-21T13:14:02.466Z,4.42
2019-04-21T13:16:31.857Z,4.20
2019-04-21T13:19:01.087Z,3.77
2019-04-21T13:21:30.318Z,6.58
2019-04-21T13:23:59.465Z,4.50
2019-04-21T13:26:37.247Z,4.37
2019-04-21T13:29:00.499Z,3.65
2019-04-21T13:31:30.088Z,3.55
2019-04-21T13:33:59.934Z,3.25
2019-04-21T13:36:29.643Z,6.67
2019-04-21T13:42:02.762Z,3.50
2019-04-21T13:44:23.497Z,5.72
2019-04-21T13:46:52.813Z,3.58
2019-04-21T13:49:23.363Z,5.83
2019-04-21T13:51:54.068Z,4.20
2019-04-21T13:54:23.301Z,4.12
2019-04-21T13:56:54.380Z,4.00
2019-04-21T13:59:24.444Z,3.62
2019-04-21T14:01:54.072Z,5.37
2019-04-21T14:04:23.458Z,3.27
2019-04-21T14:06:54.166Z,5.53
2019-04-21T14:09:36.043Z,3.55
2019-04-21T14:11:55.773Z,6.22
2019-04-21T14:14:26.157Z,4.15
2019-04-21T14:16:56.160Z,3.80
2019-04-21T14:19:25.683Z,7.08
2019-04-21T14:21:57.084Z,3.58
2019-04-21T14:24:26.798Z,3.62
2019-04-21T14:26:56.262Z,7.92
2019-04-21T14:29:25.824Z,4.00
2019-04-21T14:31:56.030Z,3.60
2019-04-21T14:34:25.976Z,5.90
2019-04-21T14:36:55.287Z,6.00
2019-04-21T14:39:24.510Z,3.52
2019-04-21T14:41:53.879Z,4.90
2019-04-21T14:44:23.070Z,3.58
2019-04-21T14:47:00.838Z,3.22
2019-04-21T14:49:49.212Z,4.05
2019-04-21T14:52:25.304Z,3.37
2019-04-21T14:55:16.715Z,5.67
2019-04-21T14:57:47.296Z,4.15
2019-04-21T15:00:19.043Z,5.20
2019-04-21T15:02:49.627Z,4.78
2019-04-21T15:05:19.755Z,5.45
2019-04-21T15:07:49.184Z,3.67
2019-04-21T15:10:23.571Z,5.25
2019-04-21T15:12:49.849Z,3.40
2019-04-21T15:15:20.186Z,11.40
2019-04-21T15:17:49.519Z,4.92
2019-04-21T15:20:20.210Z,3.70
2019-04-21T15:22:50.425Z,3.90
2019-04-21T15:25:20.181Z,6.22
2019-04-21T15:27:50.765Z,3.37
2019-04-21T15:30:20.763Z,3.25
2019-04-21T15:32:50.601Z,3.85
2019-04-21T15:35:21.321Z,4.00
2019-04-21T15:37:51.985Z,6.83
2019-04-21T15:40:34.617Z,4.55
2019-04-21T15:42:52.677Z,3.50
2019-04-21T15:45:22.064Z,4.65
2019-04-21T15:47:51.877Z,3.90
2019-04-21T15:50:23.070Z,5.45
2019-04-21T15:52:53.830Z,3.60
2019-04-21T15:55:44.602Z,3.65
2019-04-21T15:58:28.383Z,3.22
2019-04-21T16:01:20.643Z,3.33
2019-04-21T16:03:49.860Z,3.83
2019-04-21T16:06:19.461Z,3.58
2019-04-21T16:08:52.339Z,3.67
2019-04-21T16:11:19.893Z,3.65
2019-04-21T16:13:49.810Z,3.92
2019-04-21T16:16:20.212Z,3.98
2019-04-21T16:18:50.044Z,3.90
2019-04-21T16:21:19.835Z,3.85
2019-04-21T16:23:49.023Z,3.12
2019-04-21T16:26:20.246Z,5.47
2019-04-21T16:28:49.541Z,3.45
2019-04-21T16:31:18.728Z,4.05
2019-04-21T16:33:49.194Z,2.95
2019-04-21T16:36:19.956Z,3.40
2019-04-21T16:38:49.431Z,3.12
2019-04-21T16:41:20.238Z,4.05
2019-04-21T16:43:49.529Z,3.08
2019-04-21T16:46:19.657Z,3.87
2019-04-21T16:48:49.706Z,5.92
2019-04-21T16:51:20.160Z,5.50
2019-04-21T16:54:08.349Z,3.10
2019-04-21T16:56:43.861Z,5.25
2019-04-21T16:59:24.450Z,3.65
2019-04-21T17:01:54.517Z,3.15
2019-04-21T17:04:24.468Z,5.25
2019-04-21T17:06:55.384Z,3.20
2019-04-21T17:09:24.709Z,3.70
2019-04-21T17:11:59.951Z,3.47
2019-04-21T17:14:47.828Z,4.30
2019-04-21T17:17:17.940Z,4.08
2019-04-21T17:19:29.823Z,4.70
2019-04-21T17:21:57.779Z,3.30
2019-04-21T17:24:28.487Z,3.20
2019-04-21T17:26:57.818Z,3.58
2019-04-21T17:29:28.536Z,3.30
2019-04-21T17:31:59.356Z,4.78
2019-04-21T17:34:31.891Z,3.45
2019-04-21T17:37:01.006Z,3.47
2019-04-21T17:39:31.126Z,4.50
2019-04-21T17:42:14.177Z,2.98
2019-04-21T17:44:31.299Z,3.67
2019-04-21T17:47:05.207Z,3.50
2019-04-21T17:49:32.844Z,3.45
2019-04-21T17:52:25.512Z,5.35
2019-04-21T17:55:10.349Z,3.22
2019-04-21T17:57:53.031Z,3.80
2019-04-21T18:00:52.053Z,3.25
2019-04-21T18:03:02.083Z,3.35
2019-04-21T18:05:31.953Z,4.78
2019-04-21T18:07:54.769Z,3.95
2019-04-21T18:10:33.428Z,5.92
2019-04-21T18:12:55.526Z,4.47
2019-04-21T18:15:35.594Z,4.12
2019-04-21T18:17:47.768Z,3.62
2019-04-21T18:20:21.907Z,6.00
2019-04-21T18:23:15.349Z,4.17
2019-04-21T18:25:47.151Z,3.05
2019-04-21T18:28:10.360Z,4.90
2019-04-21T18:30:52.094Z,2.60
2019-04-21T18:33:28.053Z,3.10
2019-04-21T18:36:13.442Z,3.03
2019-04-21T18:39:30.039Z,10.50
2019-04-21T18:42:13.097Z,4.70
2019-04-21T18:45:30.437Z,6.73
2019-04-21T18:47:50.009Z,3.27
2019-04-21T18:50:24.229Z,3.37
2019-04-21T18:53:08.867Z,3.50
2019-04-21T18:55:36.182Z,3.17
2019-04-21T18:58:01.012Z,2.80
2019-04-21T19:00:34.473Z,2.80
2019-04-21T19:03:03.150Z,3.70
2019-04-21T19:05:32.488Z,3.47
2019-04-21T19:08:18.829Z,2.63
2019-04-21T19:10:56.191Z,2.67
2019-04-21T19:13:49.466Z,3.00
2019-04-21T19:16:15.211Z,2.57
2019-04-21T19:20:54.066Z,5.40
2019-04-21T19:23:36.339Z,5.77
2019-04-21T19:26:11.369Z,4.67
2019-04-21T19:28:25.242Z,4.73
2019-04-21T19:31:04.245Z,3.43
2019-04-21T19:33:27.373Z,5.20
2019-04-21T19:35:43.454Z,3.33
2019-04-21T19:38:16.202Z,4.97
2019-04-21T19:40:59.225Z,3.60
2019-04-21T19:43:35.818Z,3.80
2019-04-21T19:46:03.053Z,3.60
2019-04-21T19:48:36.293Z,3.83
2019-04-21T19:51:05.333Z,3.50
2019-04-21T19:53:29.905Z,4.33
2019-04-21T19:55:50.162Z,4.67
2019-04-21T19:58:27.506Z,3.97
2019-04-21T20:00:53.452Z,4.60
2019-04-21T20:03:21.438Z,5.93
2019-04-21T20:06:00.382Z,5.47
2019-04-21T20:08:36.613Z,5.30
2019-04-21T20:11:10.203Z,4.40
2019-04-21T20:13:52.737Z,4.37
2019-04-21T20:16:15.052Z,7.57
2019-04-21T20:18:34.818Z,4.03
2019-04-21T20:20:56.538Z,4.80
2019-04-21T20:23:31.701Z,5.03
2019-04-21T20:26:02.309Z,7.00
2019-04-21T20:28:44.066Z,5.17
2019-04-21T20:31:19.198Z,4.80
2019-04-21T20:33:52.629Z,7.20
2019-04-21T20:36:21.114Z,8.30
2019-04-21T20:38:42.225Z,6.73
2019-04-21T20:41:22.480Z,11.67
2019-04-21T20:43:54.130Z,5.73
2019-04-21T20:46:24.861Z,5.27
2019-04-21T20:48:52.428Z,4.50
2019-04-21T20:51:31.346Z,3.83
2019-04-21T20:53:53.680Z,4.33
2019-04-21T20:56:19.448Z,6.77
2019-04-21T20:58:59.967Z,5.43
2019-04-21T21:01:34.781Z,5.90
2019-04-21T21:04:00.367Z,5.17
2019-04-21T21:06:33.741Z,6.87
2019-04-21T21:09:02.951Z,6.17
2019-04-21T21:12:06.621Z,6.60
2019-04-21T21:14:07.438Z,4.53
2019-04-21T21:16:44.706Z,4.13
2019-04-21T21:21:34.475Z,5.30
2019-04-21T21:24:09.299Z,5.77
2019-04-21T21:26:47.233Z,4.77
2019-04-21T21:29:03.663Z,3.53
2019-04-21T21:31:41.449Z,3.90
2019-04-21T21:34:15.282Z,4.63
2019-04-21T21:36:41.542Z,6.93
2019-04-21T21:39:15.476Z,5.50
2019-04-21T21:41:35.611Z,5.70
2019-04-21T21:44:05.819Z,4.97
2019-04-21T21:46:44.169Z,6.90
2019-04-21T21:49:19.049Z,5.03
2019-04-21T21:51:44.995Z,3.43
2019-04-21T21:54:04.770Z,3.33
2019-04-21T21:56:34.395Z,4.13
2019-04-21T21:59:11.725Z,5.60
2019-04-21T22:01:40.683Z,6.27
2019-04-21T22:04:13.383Z,4.60
2019-04-21T22:06:47.281Z,5.27
2019-04-21T22:09:12.547Z,4.53
2019-04-21T22:11:42.256Z,4.23
2019-04-21T22:14:20.400Z,4.07
2019-04-21T22:17:00.980Z,5.37
2019-04-21T22:19:34.016Z,3.63
2019-04-21T22:22:08.368Z,4.63
2019-04-21T22:24:35.069Z,4.23
2019-04-21T22:26:47.277Z,5.43
2019-04-21T22:29:16.817Z,3.80
2019-04-21T22:31:46.884Z,3.93
2019-04-21T22:34:21.867Z,4.73
2019-04-21T22:36:58.972Z,5.73
2019-04-21T22:39:37.546Z,4.93
2019-04-21T22:42:01.822Z,3.83
2019-04-21T22:44:22.618Z,3.47
2019-04-21T22:47:04.250Z,5.57
2019-04-21T22:49:23.819Z,5.23
2019-04-21T22:51:53.959Z,5.80
2019-04-21T22:54:31.448Z,5.23
2019-04-21T22:57:02.588Z,5.23
2019-04-21T22:59:27.917Z,6.27
2019-04-21T23:01:57.618Z,8.90
2019-04-21T23:04:36.833Z,6.43
2019-04-21T23:07:02.834Z,5.13
2019-04-21T23:09:28.964Z,6.93
2019-04-21T23:12:01.342Z,7.47
2019-04-21T23:14:33.899Z,7.30
2019-04-21T23:17:26.619Z,5.70
2019-04-21T23:19:46.030Z,6.37
2019-04-21T23:22:23.208Z,5.07
2019-04-21T23:24:51.583Z,4.40
2019-04-21T23:27:13.144Z,4.50
2019-04-21T23:29:58.972Z,5.90
2019-04-21T23:32:22.351Z,3.97
2019-04-21T23:34:41.751Z,4.93
2019-04-21T23:37:16.293Z,7.70
2019-04-21T23:39:41.557Z,4.03
2019-04-21T23:42:11.217Z,4.50
2019-04-21T23:44:47.027Z,5.57
2019-04-21T23:47:20.005Z,8.27
2019-04-21T23:49:51.139Z,4.17
2019-04-21T23:52:15.995Z,4.60
2019-04-21T23:54:45.295Z,4.07
2019-04-21T23:57:23.439Z,4.03
2019-04-21T23:59:50.365Z,4.37
